Abandanak, Iran

43°F / 6°C
Partly Cloudy
Windchill: 40°F / 4°C
Humidity: 93%
Dew Point: 41°F / 5°C
Wind: South at 5 mph / 7 km/h
Pressure: 30.04 in / 1017 hPa (Falling)
Visibility: 6.2 miles / 10.0 kilometers
Clouds: (FEW) : 2500 ft / 762 m
Yesterday's Maximum: 48°F / 9°C
Yesterday's Minimum: 45°F / 7°C approx.
Yesterday's Heating Degree Days: 19 approx.
UV: 0 out of 16
Sunrise:6:50 AM +0330
Sunset:5:45 PM +0330
Moon Rise:3:11 PM +0330
Moon Set:4:56 AM +0330
Moon Phase Waxing Gibbous
NOAA Weather Radio
No local feed.
METAR OINN 172000Z 19004KT 9999 FEW025 06/05 Q1017
As of: 11:30 PM +0330 on February 17, 2019
Observed at: Noshahr, Iran

View Station's History

Local Satellite

Current Satellite Forecast
Region Default Local
No Yes

View Full Screen WunderMap

Forecast

Current Satellite Forecast

Features

Weather Apps

WunderRadio

Weather Underground Apps
Check out our wide variety of mobile and setup applications.

Weather Underground Applications

Top of Page

© Copyright 2019
The Weather Company, LLC